Time;durP1;ratioP1;P1;durP2;ratioP2;P2;SDS_P1;SDS_P2;PMS_P1;PMS_P2;Temp;Humidity;BMP_temperature;BMP_pressure;BME280_temperature;BME280_humidity;BME280_pressure;Samples;Min_cycle;Max_cycle;Signal;HPM_P1;HPM_P2
2023/08/21 00:02:03;;;;;;;13.38;3.83;;;15.40;99.90;;;;;;5055761;28;20103;-74
2023/08/21 00:04:28;;;;;;;8.57;3.72;;;15.40;99.90;;;;;;5055743;28;20048;-73
2023/08/21 00:06:54;;;;;;;8.95;3.72;;;15.40;99.90;;;;;;5057086;28;20076;-73
2023/08/21 00:09:19;;;;;;;12.45;4.07;;;15.40;99.90;;;;;;5055745;28;20492;-74
2023/08/21 00:11:45;;;;;;;9.20;4.00;;;15.40;99.90;;;;;;5055983;28;20087;-73
2023/08/21 00:14:11;;;;;;;8.60;4.90;;;15.30;99.90;;;;;;5055601;28;20531;-74
2023/08/21 00:16:36;;;;;;;10.68;4.65;;;15.30;99.90;;;;;;5056891;28;20094;-74
2023/08/21 00:19:02;;;;;;;8.95;3.92;;;15.40;99.90;;;;;;5055789;28;20385;-74
2023/08/21 00:21:28;;;;;;;7.47;3.78;;;15.40;99.90;;;;;;5055478;28;20553;-74
2023/08/21 00:23:54;;;;;;;8.85;3.53;;;15.30;99.90;;;;;;5055708;28;20045;-74
2023/08/21 00:26:20;;;;;;;7.85;3.20;;;15.40;99.90;;;;;;5055057;28;20107;-73
2023/08/21 00:28:45;;;;;;;8.23;3.30;;;15.30;99.90;;;;;;5055674;28;20084;-74
2023/08/21 00:31:11;;;;;;;6.55;3.25;;;15.30;99.90;;;;;;5055250;28;20381;-74
2023/08/21 00:33:37;;;;;;;8.73;3.22;;;15.30;99.90;;;;;;5056540;28;20048;-74
2023/08/21 00:36:03;;;;;;;8.00;3.10;;;15.30;99.90;;;;;;5055459;28;20045;-74
2023/08/21 00:38:29;;;;;;;7.28;3.17;;;15.20;99.90;;;;;;5055268;28;20514;-74
2023/08/21 00:40:54;;;;;;;7.53;3.05;;;15.20;99.90;;;;;;5055289;28;20520;-73
2023/08/21 00:43:20;;;;;;;10.02;3.38;;;15.20;99.90;;;;;;5055144;28;20048;-73
2023/08/21 00:45:47;;;;;;;6.82;3.17;;;15.20;99.90;;;;;;5055240;28;20123;-73
2023/08/21 00:48:14;;;;;;;8.60;2.80;;;15.20;99.90;;;;;;5056257;28;20405;-74
2023/08/21 00:50:40;;;;;;;7.38;2.80;;;15.20;99.90;;;;;;5054779;28;20044;-74
2023/08/21 00:53:06;;;;;;;9.63;3.03;;;15.20;99.90;;;;;;5056132;28;20128;-73
2023/08/21 00:55:33;;;;;;;8.75;3.22;;;15.10;99.90;;;;;;5054933;28;20040;-73
2023/08/21 00:58:00;;;;;;;8.32;3.60;;;15.20;99.90;;;;;;5056046;28;20125;-74
2023/08/21 01:00:28;;;;;;;6.63;3.53;;;15.10;99.90;;;;;;5054889;28;20400;-74
2023/08/21 01:02:54;;;;;;;6.78;3.42;;;15.10;99.90;;;;;;5054679;28;20045;-73
2023/08/21 01:05:22;;;;;;;9.05;3.50;;;15.20;99.90;;;;;;5054708;28;20049;-73
2023/08/21 01:08:08;;;;;;;9.88;3.85;;;15.20;99.90;;;;;;5055878;28;20041;-73
2023/08/21 01:11:09;;;;;;;7.07;3.22;;;15.20;99.90;;;;;;5044003;28;20080;-73
2023/08/21 01:14:06;;;;;;;8.90;4.45;;;15.10;99.90;;;;;;5054472;28;20040;-73
2023/08/21 01:16:33;;;;;;;7.05;2.50;;;15.10;99.90;;;;;;5054578;28;20055;-73
2023/08/21 01:19:00;;;;;;;10.13;3.17;;;15.10;99.90;;;;;;5054315;28;20049;-73
2023/08/21 01:21:27;;;;;;;8.32;3.50;;;15.00;99.90;;;;;;5054566;28;20404;-73
2023/08/21 01:23:52;;;;;;;5.90;3.08;;;15.10;99.90;;;;;;5054328;28;20124;-73
2023/08/21 01:26:18;;;;;;;7.65;3.55;;;15.10;99.90;;;;;;5054304;28;20120;-74
2023/08/21 01:28:45;;;;;;;7.68;3.42;;;15.00;99.90;;;;;;5054597;28;20057;-73
2023/08/21 01:31:30;;;;;;;7.28;2.78;;;15.00;99.90;;;;;;5054270;28;20568;-73
2023/08/21 01:33:59;;;;;;;7.00;2.70;;;15.00;99.90;;;;;;5054040;28;20128;-73
2023/08/21 01:36:25;;;;;;;6.20;2.72;;;14.90;99.90;;;;;;5055492;28;20037;-73
2023/08/21 01:38:51;;;;;;;7.05;3.25;;;14.90;99.90;;;;;;5055408;28;20116;-73
2023/08/21 01:41:17;;;;;;;11.00;3.75;;;14.90;99.90;;;;;;5055120;28;20097;-73
2023/08/21 01:43:43;;;;;;;5.00;2.90;;;14.90;99.90;;;;;;5054107;28;20045;-73
2023/08/21 01:46:09;;;;;;;7.03;3.22;;;14.90;99.90;;;;;;5055278;28;20055;-73
2023/08/21 01:48:38;;;;;;;9.18;3.45;;;14.80;99.90;;;;;;5053837;28;20124;-73
2023/08/21 01:51:03;;;;;;;6.28;3.38;;;14.80;99.90;;;;;;5054059;28;20052;-73
2023/08/21 01:53:29;;;;;;;6.53;3.05;;;14.80;99.90;;;;;;5053746;28;20132;-73
2023/08/21 01:55:55;;;;;;;7.57;3.35;;;14.80;99.90;;;;;;5053784;28;20047;-73
2023/08/21 01:58:20;;;;;;;8.60;3.25;;;14.80;99.90;;;;;;5053774;28;20101;-73
2023/08/21 02:00:49;;;;;;;8.60;3.20;;;14.80;99.90;;;;;;5053765;28;20084;-73
2023/08/21 02:03:15;;;;;;;6.97;2.88;;;14.70;99.90;;;;;;5052423;28;20115;-73
2023/08/21 02:05:41;;;;;;;5.30;2.70;;;14.70;99.90;;;;;;5033655;28;20477;-73
2023/08/21 02:08:09;;;;;;;6.82;3.08;;;14.70;99.90;;;;;;5033586;28;20104;-74
2023/08/21 02:10:34;;;;;;;9.65;3.08;;;14.70;99.90;;;;;;5033570;28;20041;-73
2023/08/21 02:13:00;;;;;;;6.43;3.20;;;14.70;99.90;;;;;;5033257;28;20044;-73
2023/08/21 02:15:26;;;;;;;8.68;3.25;;;14.70;99.90;;;;;;5033642;28;20057;-73
2023/08/21 02:17:51;;;;;;;8.13;4.22;;;14.70;99.90;;;;;;5033385;28;20443;-73
2023/08/21 02:20:17;;;;;;;6.68;3.22;;;14.70;99.90;;;;;;5033628;28;20056;-73
2023/08/21 02:22:43;;;;;;;7.47;3.05;;;14.70;99.90;;;;;;5034665;28;20422;-74
2023/08/21 02:25:08;;;;;;;5.72;3.03;;;14.70;99.90;;;;;;5033585;28;20368;-73
2023/08/21 02:27:34;;;;;;;6.80;3.22;;;14.70;99.90;;;;;;5033076;28;20435;-74
2023/08/21 02:30:01;;;;;;;7.78;3.22;;;14.70;99.90;;;;;;5033136;28;20056;-73
2023/08/21 02:32:27;;;;;;;8.35;3.55;;;14.70;99.90;;;;;;5032959;28;20086;-73
2023/08/21 02:34:53;;;;;;;6.45;3.28;;;14.70;99.90;;;;;;5033348;28;20053;-73
2023/08/21 02:37:18;;;;;;;8.93;3.85;;;14.70;99.90;;;;;;5033102;28;20428;-74
2023/08/21 02:39:44;;;;;;;8.52;3.75;;;14.60;99.90;;;;;;5033272;28;20136;-73
2023/08/21 02:42:09;;;;;;;7.90;3.58;;;14.60;99.90;;;;;;5032798;28;20064;-73
2023/08/21 02:44:35;;;;;;;5.50;3.22;;;14.60;99.90;;;;;;5032850;28;20482;-74
2023/08/21 02:47:00;;;;;;;6.32;3.15;;;14.50;99.90;;;;;;5033167;28;20053;-73
2023/08/21 02:49:26;;;;;;;7.50;3.25;;;14.50;99.90;;;;;;5033104;28;20179;-73
2023/08/21 02:51:55;;;;;;;6.80;2.75;;;14.50;99.90;;;;;;5032873;28;20060;-73
2023/08/21 02:54:20;;;;;;;8.00;2.80;;;14.50;99.90;;;;;;5032785;28;20056;-73
2023/08/21 02:56:46;;;;;;;9.35;3.75;;;14.50;99.90;;;;;;5034199;28;20131;-73
2023/08/21 02:59:11;;;;;;;7.18;3.28;;;14.50;99.90;;;;;;5032906;28;20515;-73
2023/08/21 03:01:37;;;;;;;7.60;3.63;;;14.50;99.90;;;;;;5032879;28;20045;-73
2023/08/21 03:04:03;;;;;;;7.32;3.60;;;14.50;99.90;;;;;;5032744;28;20049;-74
2023/08/21 03:06:28;;;;;;;10.13;3.70;;;14.50;99.90;;;;;;5032537;28;20099;-73
2023/08/21 03:08:54;;;;;;;9.40;3.80;;;14.50;99.90;;;;;;5033774;28;20052;-73
2023/08/21 03:11:19;;;;;;;7.60;3.55;;;14.50;99.90;;;;;;5032600;28;20555;-73
2023/08/21 03:13:45;;;;;;;9.10;3.53;;;14.50;99.90;;;;;;5033467;28;20133;-73
2023/08/21 03:16:10;;;;;;;7.93;3.30;;;14.50;99.90;;;;;;5032401;28;20046;-73
2023/08/21 03:18:57;;;;;;;8.35;3.88;;;14.50;99.90;;;;;;5032422;28;20057;-73
2023/08/21 03:21:23;;;;;;;8.90;3.58;;;14.50;99.90;;;;;;5032545;28;20049;-73
2023/08/21 03:23:56;;;;;;;8.27;3.55;;;14.50;99.90;;;;;;5033680;28;20121;-73
2023/08/21 03:26:23;;;;;;;9.60;3.38;;;14.50;99.90;;;;;;5032108;28;20045;-74
2023/08/21 03:28:48;;;;;;;7.70;2.85;;;14.50;99.90;;;;;;5032354;28;20058;-74
2023/08/21 03:31:15;;;;;;;6.00;3.00;;;14.50;99.90;;;;;;5033729;28;20061;-73
2023/08/21 03:33:40;;;;;;;7.25;3.05;;;14.40;99.90;;;;;;5032356;28;20481;-73
2023/08/21 03:36:06;;;;;;;4.95;3.13;;;14.40;99.90;;;;;;5032586;28;20060;-73
2023/08/21 03:38:32;;;;;;;5.30;2.65;;;14.40;99.90;;;;;;5032205;28;20045;-73
2023/08/21 03:40:58;;;;;;;6.85;2.85;;;14.30;99.90;;;;;;5033526;28;20045;-73
2023/08/21 03:43:24;;;;;;;5.75;3.10;;;14.20;99.90;;;;;;5032228;28;20041;-73
2023/08/21 03:45:50;;;;;;;6.00;2.95;;;14.20;99.90;;;;;;5032243;28;20052;-73
2023/08/21 03:48:15;;;;;;;7.88;3.30;;;14.20;99.90;;;;;;5032224;28;20045;-72
2023/08/21 03:50:41;;;;;;;7.30;3.50;;;14.20;99.90;;;;;;5032439;28;20049;-73
2023/08/21 03:53:07;;;;;;;7.18;3.67;;;14.20;99.90;;;;;;5032130;28;20038;-73
2023/08/21 03:55:33;;;;;;;6.47;3.70;;;14.20;99.90;;;;;;5032204;28;20045;-73
2023/08/21 03:57:59;;;;;;;8.13;3.70;;;14.20;99.90;;;;;;5032047;28;20128;-73
2023/08/21 04:00:24;;;;;;;8.88;3.67;;;14.30;99.90;;;;;;5032326;28;20083;-73
2023/08/21 04:02:50;;;;;;;6.15;3.20;;;14.30;99.90;;;;;;5032056;28;20057;-73
2023/08/21 04:05:16;;;;;;;6.38;3.33;;;14.40;99.90;;;;;;5032216;28;20049;-73
2023/08/21 04:07:41;;;;;;;7.57;3.40;;;14.40;99.90;;;;;;5031902;28;20045;-73
2023/08/21 04:10:07;;;;;;;7.85;3.40;;;14.40;99.90;;;;;;5031883;28;20041;-73
2023/08/21 04:12:33;;;;;;;25.15;3.67;;;14.40;99.90;;;;;;5032042;28;20049;-73
2023/08/21 04:14:58;;;;;;;28.73;3.88;;;14.30;99.90;;;;;;5031757;28;20045;-73
2023/08/21 04:17:24;;;;;;;6.75;3.03;;;14.40;99.90;;;;;;5031929;28;20061;-73
2023/08/21 04:19:51;;;;;;;7.47;3.22;;;14.30;99.90;;;;;;5031400;28;20046;-73
2023/08/21 04:22:17;;;;;;;12.38;3.80;;;14.30;99.90;;;;;;5030370;28;20381;-73
2023/08/21 04:24:43;;;;;;;4.55;3.33;;;14.30;99.90;;;;;;5033002;28;20044;-73
2023/08/21 04:27:08;;;;;;;7.13;3.60;;;14.20;99.90;;;;;;5033602;28;20069;-74
2023/08/21 04:29:38;;;;;;;35.55;5.25;;;14.30;99.90;;;;;;5036468;28;20057;-73
2023/08/21 04:32:05;;;;;;;12.20;3.92;;;14.30;99.90;;;;;;5035540;28;20041;-73
2023/08/21 04:34:32;;;;;;;11.75;4.25;;;14.30;99.90;;;;;;5034924;28;20399;-73
2023/08/21 04:36:58;;;;;;;23.40;5.13;;;14.40;99.90;;;;;;5035425;28;20103;-73
2023/08/21 04:39:23;;;;;;;24.63;5.10;;;14.40;99.90;;;;;;5036365;28;20050;-73
2023/08/21 04:41:49;;;;;;;33.33;5.28;;;14.40;99.90;;;;;;5035190;28;20056;-73
2023/08/21 04:44:15;;;;;;;14.77;5.10;;;14.40;99.90;;;;;;5036263;28;20128;-73
2023/08/21 04:46:40;;;;;;;27.13;5.97;;;14.50;99.90;;;;;;5034939;28;20409;-73
2023/08/21 04:49:06;;;;;;;56.40;7.10;;;14.50;99.90;;;;;;5034879;28;20045;-73
2023/08/21 04:51:32;;;;;;;6.40;4.50;;;14.50;99.90;;;;;;5034798;28;20095;-73
2023/08/21 04:53:59;;;;;;;19.30;5.10;;;14.50;99.90;;;;;;5034640;28;20045;-73
2023/08/21 04:56:34;;;;;;;8.50;5.10;;;14.60;99.90;;;;;;5034886;28;20069;-73
2023/08/21 04:58:59;;;;;;;14.00;5.53;;;14.60;99.90;;;;;;5034741;28;20100;-73
2023/08/21 05:01:25;;;;;;;11.70;5.55;;;14.60;99.90;;;;;;5034617;28;20088;-73
2023/08/21 05:03:51;;;;;;;16.98;5.70;;;14.60;99.90;;;;;;5034572;28;20562;-73
2023/08/21 05:06:17;;;;;;;15.32;5.47;;;14.60;99.90;;;;;;5034532;28;20075;-73
2023/08/21 05:08:42;;;;;;;10.40;5.75;;;14.70;99.90;;;;;;5034749;28;20132;-73
2023/08/21 05:11:08;;;;;;;7.07;6.05;;;14.60;99.90;;;;;;5034803;28;20038;-73
2023/08/21 05:13:34;;;;;;;10.40;5.53;;;14.70;99.90;;;;;;5034551;28;20393;-73
2023/08/21 05:16:02;;;;;;;8.02;5.50;;;14.70;99.90;;;;;;5034597;28;20401;-73
2023/08/21 05:18:28;;;;;;;7.32;4.82;;;14.80;99.90;;;;;;5034494;28;20041;-73
2023/08/21 05:20:55;;;;;;;8.88;5.47;;;14.80;99.90;;;;;;5035733;28;20116;-73
2023/08/21 05:23:21;;;;;;;6.28;5.00;;;14.80;99.90;;;;;;5035724;28;20045;-73
2023/08/21 05:25:49;;;;;;;8.27;5.20;;;14.80;99.90;;;;;;5034444;28;20140;-73
2023/08/21 05:28:14;;;;;;;8.80;5.30;;;14.80;99.90;;;;;;5034045;28;20060;-73
2023/08/21 05:30:43;;;;;;;8.52;5.28;;;14.90;99.90;;;;;;5034292;28;20054;-73
2023/08/21 05:33:08;;;;;;;11.85;5.60;;;14.90;99.90;;;;;;5033985;28;20053;-73
2023/08/21 05:35:35;;;;;;;8.43;5.45;;;15.10;99.90;;;;;;5034033;28;20392;-73
2023/08/21 05:38:05;;;;;;;14.00;5.22;;;15.00;99.90;;;;;;5035414;28;20048;-73
2023/08/21 05:40:31;;;;;;;8.65;4.95;;;15.10;99.90;;;;;;5034241;28;20103;-73
2023/08/21 05:42:57;;;;;;;6.47;4.70;;;15.20;99.90;;;;;;5034148;28;20512;-73
2023/08/21 05:45:23;;;;;;;11.45;5.00;;;15.20;99.90;;;;;;5033704;28;20127;-73
2023/08/21 05:47:49;;;;;;;9.52;4.63;;;15.20;99.90;;;;;;5033814;28;20041;-73
2023/08/21 05:50:14;;;;;;;10.32;5.05;;;15.30;99.90;;;;;;5033771;28;20049;-73
2023/08/21 05:52:40;;;;;;;7.20;4.85;;;15.40;99.90;;;;;;5033604;28;20038;-73
2023/08/21 05:55:06;;;;;;;8.85;4.88;;;15.50;99.90;;;;;;5033614;28;20053;-73
2023/08/21 05:57:32;;;;;;;8.57;4.88;;;15.50;99.90;;;;;;5033708;28;20038;-73
2023/08/21 05:59:57;;;;;;;9.73;4.97;;;15.60;99.90;;;;;;5033562;28;20128;-73
2023/08/21 06:02:23;;;;;;;8.30;4.45;;;15.70;99.90;;;;;;5034760;28;20042;-73
2023/08/21 06:04:49;;;;;;;10.10;4.88;;;15.90;99.90;;;;;;5033408;28;20050;-74
2023/08/21 06:07:14;;;;;;;12.93;5.32;;;16.00;99.90;;;;;;5033654;28;20053;-73
2023/08/21 06:09:40;;;;;;;10.82;5.20;;;16.10;99.90;;;;;;5033420;28;20052;-73
2023/08/21 06:12:06;;;;;;;7.22;4.60;;;16.20;99.90;;;;;;5033256;28;20056;-73
2023/08/21 06:14:32;;;;;;;12.15;4.78;;;16.30;99.90;;;;;;5033151;28;20045;-73
2023/08/21 06:16:59;;;;;;;8.55;4.53;;;16.40;99.90;;;;;;5033529;28;20042;-73
2023/08/21 06:19:25;;;;;;;8.98;4.63;;;16.60;99.90;;;;;;5033187;28;20404;-73
2023/08/21 06:21:53;;;;;;;8.65;3.85;;;16.70;99.90;;;;;;5034453;28;20038;-73
2023/08/21 06:24:23;;;;;;;10.10;4.32;;;16.90;99.90;;;;;;5034503;28;20049;-73
2023/08/21 06:26:48;;;;;;;10.20;4.30;;;17.00;99.90;;;;;;5032968;28;20063;-73
2023/08/21 06:29:14;;;;;;;13.10;3.92;;;17.10;99.90;;;;;;5033258;28;20064;-73
2023/08/21 06:31:40;;;;;;;10.57;3.80;;;17.20;99.90;;;;;;5033057;28;20503;-73
2023/08/21 06:34:05;;;;;;;7.40;3.90;;;17.30;99.90;;;;;;5032825;28;20049;-73
2023/08/21 06:36:31;;;;;;;10.98;4.53;;;17.50;99.90;;;;;;5034132;28;20045;-73
2023/08/21 06:38:58;;;;;;;9.00;4.05;;;17.70;99.90;;;;;;5032941;28;20454;-73
2023/08/21 06:41:25;;;;;;;7.05;3.63;;;17.70;99.90;;;;;;5033040;28;20077;-73
2023/08/21 06:43:51;;;;;;;7.55;3.75;;;17.80;99.90;;;;;;5032635;28;20137;-73
2023/08/21 06:46:17;;;;;;;10.18;3.70;;;17.90;99.90;;;;;;5032978;28;20132;-73
2023/08/21 06:48:43;;;;;;;7.07;3.60;;;18.00;99.90;;;;;;5032138;28;20052;-74
2023/08/21 06:51:11;;;;;;;6.22;3.33;;;18.20;99.90;;;;;;5032868;28;20049;-73
2023/08/21 06:53:37;;;;;;;8.57;3.05;;;18.30;99.90;;;;;;5032548;28;20408;-73
2023/08/21 06:56:02;;;;;;;8.00;3.63;;;18.50;99.90;;;;;;5032675;28;20047;-73
2023/08/21 06:58:28;;;;;;;8.23;3.42;;;18.50;99.90;;;;;;5032736;28;20061;-72
2023/08/21 07:00:55;;;;;;;7.20;3.03;;;18.70;99.90;;;;;;5025910;28;20136;-71
2023/08/21 07:03:21;;;;;;;7.95;2.70;;;18.80;99.90;;;;;;5019892;28;20119;-71
2023/08/21 07:05:57;;;;;;;7.80;3.30;;;18.90;99.90;;;;;;5013792;28;20151;-72
2023/08/21 07:08:26;;;;;;;8.65;2.95;;;18.90;99.90;;;;;;5029219;28;20052;-71
2023/08/21 07:10:52;;;;;;;4.53;2.35;;;19.10;99.90;;;;;;5012425;28;20096;-71
2023/08/21 07:13:19;;;;;;;9.00;2.92;;;19.20;99.90;;;;;;5028777;28;20382;-71
2023/08/21 07:15:45;;;;;;;9.38;2.85;;;19.20;99.90;;;;;;5013747;28;20042;-72
2023/08/21 07:18:10;;;;;;;9.30;2.80;;;19.30;99.90;;;;;;5012370;28;20046;-73
2023/08/21 07:20:36;;;;;;;10.52;2.60;;;19.50;99.90;;;;;;5034251;28;20454;-73
2023/08/21 07:23:02;;;;;;;10.15;2.50;;;19.50;99.90;;;;;;5041055;28;20049;-73
2023/08/21 07:25:30;;;;;;;7.03;2.45;;;19.60;99.90;;;;;;5043361;28;20049;-73
2023/08/21 07:27:56;;;;;;;7.35;2.30;;;19.80;99.90;;;;;;5040527;28;20073;-73
2023/08/21 07:30:22;;;;;;;5.88;2.47;;;19.80;99.90;;;;;;5032007;28;20504;-73
2023/08/21 07:32:48;;;;;;;7.32;2.63;;;20.00;99.90;;;;;;5037482;28;20511;-73
2023/08/21 07:35:15;;;;;;;8.13;2.67;;;20.00;99.90;;;;;;5046265;28;20417;-73
2023/08/21 07:37:44;;;;;;;8.68;3.10;;;20.10;99.90;;;;;;5051633;28;20075;-72
2023/08/21 07:40:10;;;;;;;7.07;2.53;;;20.20;99.90;;;;;;5052054;28;20075;-73
2023/08/21 07:42:35;;;;;;;6.47;2.00;;;20.40;99.90;;;;;;5053391;28;20122;-72
2023/08/21 07:45:01;;;;;;;8.18;2.30;;;20.50;99.90;;;;;;5051614;28;20498;-73
2023/08/21 07:47:27;;;;;;;6.93;2.30;;;20.60;99.90;;;;;;5051969;28;20051;-73
2023/08/21 07:49:53;;;;;;;7.38;2.42;;;20.60;99.90;;;;;;5051937;28;20052;-73
2023/08/21 07:52:19;;;;;;;8.23;2.47;;;20.70;99.90;;;;;;5051110;28;20045;-73
2023/08/21 07:54:45;;;;;;;6.40;2.53;;;20.60;99.90;;;;;;5043002;28;20048;-72
2023/08/21 07:57:11;;;;;;;7.95;2.50;;;20.70;99.90;;;;;;5031738;28;20041;-72
2023/08/21 07:59:36;;;;;;;6.10;2.13;;;20.80;99.90;;;;;;5031969;28;20053;-71
2023/08/21 08:02:03;;;;;;;6.50;1.95;;;20.90;99.90;;;;;;5034264;28;20405;-74
2023/08/21 08:04:28;;;;;;;7.70;2.35;;;21.00;99.90;;;;;;5039757;28;20041;-72
2023/08/21 08:06:54;;;;;;;6.00;2.30;;;21.10;99.90;;;;;;5045352;28;20056;-73
2023/08/21 08:09:19;;;;;;;7.78;3.50;;;21.20;99.90;;;;;;5044233;28;20052;-72
2023/08/21 08:11:45;;;;;;;9.35;3.15;;;21.20;99.90;;;;;;5035727;28;20081;-73
2023/08/21 08:14:11;;;;;;;9.75;3.65;;;21.20;99.90;;;;;;5019030;28;20408;-72
2023/08/21 08:16:36;;;;;;;9.95;3.53;;;21.20;99.90;;;;;;5038999;28;20045;-73
2023/08/21 08:19:02;;;;;;;9.00;3.28;;;21.30;99.90;;;;;;5034945;28;20564;-73
2023/08/21 08:21:27;;;;;;;6.97;2.70;;;21.30;99.90;;;;;;5035199;28;20045;-73
2023/08/21 08:23:56;;;;;;;9.23;3.13;;;21.40;99.90;;;;;;5035278;28;20041;-73
2023/08/21 08:26:24;;;;;;;6.80;2.97;;;21.50;99.90;;;;;;5035251;28;20077;-73
2023/08/21 08:28:50;;;;;;;8.95;3.30;;;21.60;99.90;;;;;;5034737;28;20119;-73
2023/08/21 08:31:19;;;;;;;10.63;5.10;;;21.60;99.90;;;;;;5035095;28;20397;-73
2023/08/21 08:33:45;;;;;;;8.25;3.58;;;21.70;99.90;;;;;;5034966;28;20057;-73
2023/08/21 08:36:11;;;;;;;9.23;4.00;;;21.70;99.90;;;;;;5034159;28;20037;-73
2023/08/21 08:38:37;;;;;;;10.38;4.18;;;21.80;99.90;;;;;;5033983;28;20562;-73
2023/08/21 08:41:11;;;;;;;11.55;4.47;;;21.80;99.90;;;;;;5023771;28;20116;-73
2023/08/21 08:43:40;;;;;;;8.38;4.18;;;21.90;99.90;;;;;;5027486;28;20041;-73
2023/08/21 08:46:10;;;;;;;10.02;4.22;;;21.90;99.90;;;;;;5035000;28;20049;-73
2023/08/21 08:48:37;;;;;;;10.45;3.83;;;22.00;99.90;;;;;;5036064;28;20068;-73
2023/08/21 08:51:06;;;;;;;6.72;3.58;;;22.10;99.90;;;;;;5034650;28;20130;-73
2023/08/21 08:53:32;;;;;;;11.77;3.97;;;22.20;99.90;;;;;;5035803;28;20386;-73
2023/08/21 08:55:58;;;;;;;7.50;3.95;;;22.30;99.90;;;;;;5034511;28;20049;-72
2023/08/21 08:58:24;;;;;;;13.07;4.28;;;22.30;99.90;;;;;;5034653;28;20045;-73
2023/08/21 09:00:50;;;;;;;10.00;4.07;;;22.40;99.90;;;;;;5034439;28;20045;-72
2023/08/21 09:03:18;;;;;;;9.10;3.97;;;22.40;99.90;;;;;;5035583;28;20042;-73
2023/08/21 09:05:44;;;;;;;8.73;3.25;;;22.50;99.90;;;;;;5033695;28;20056;-72
2023/08/21 09:08:11;;;;;;;7.82;2.80;;;22.50;99.90;;;;;;5014633;28;20049;-73
2023/08/21 09:10:41;;;;;;;10.85;2.53;;;22.60;99.90;;;;;;5014802;28;20140;-72
2023/08/21 09:13:18;;;;;;;8.25;2.90;;;22.60;99.90;;;;;;5022115;28;20069;-72
2023/08/21 09:15:47;;;;;;;10.57;2.90;;;22.70;99.90;;;;;;5034398;28;20120;-72
2023/08/21 09:18:14;;;;;;;8.73;2.30;;;22.70;99.90;;;;;;5032244;28;20060;-72
2023/08/21 09:20:43;;;;;;;9.13;2.10;;;22.80;99.90;;;;;;5044821;28;20053;-72
2023/08/21 09:23:14;;;;;;;9.93;2.30;;;22.90;99.90;;;;;;5038019;28;20041;-71
2023/08/21 09:25:40;;;;;;;8.77;2.05;;;22.90;99.90;;;;;;5050207;28;20053;-72
2023/08/21 09:28:09;;;;;;;10.77;2.65;;;22.90;99.90;;;;;;5042861;28;20408;-72
2023/08/21 09:30:46;;;;;;;7.45;2.00;;;22.90;99.90;;;;;;5060454;28;20063;-73
2023/08/21 09:33:12;;;;;;;8.18;2.90;;;22.90;99.90;;;;;;5033953;28;20081;-71
2023/08/21 09:35:39;;;;;;;5.97;2.40;;;23.00;99.90;;;;;;5034167;28;20137;-71
2023/08/21 09:38:06;;;;;;;5.07;1.83;;;23.10;99.90;;;;;;5033697;28;20405;-71
2023/08/21 09:40:32;;;;;;;7.18;2.10;;;23.20;99.90;;;;;;5033992;28;20595;-71
2023/08/21 09:42:59;;;;;;;9.93;2.03;;;23.30;99.90;;;;;;5034985;28;20124;-71
2023/08/21 09:45:25;;;;;;;4.68;2.20;;;23.30;99.90;;;;;;5033616;28;20088;-71
2023/08/21 09:47:52;;;;;;;10.05;2.53;;;23.30;99.90;;;;;;5033828;28;20052;-71
2023/08/21 09:50:19;;;;;;;7.63;2.05;;;23.40;99.90;;;;;;5033608;28;20045;-71
2023/08/21 09:52:46;;;;;;;6.32;2.20;;;23.50;99.90;;;;;;5033680;28;20120;-70
2023/08/21 09:55:14;;;;;;;8.57;1.92;;;23.60;99.90;;;;;;5033690;28;20400;-78
2023/08/21 09:57:41;;;;;;;13.38;2.30;;;23.60;99.90;;;;;;5033733;28;20064;-78
2023/08/21 10:00:20;;;;;;;6.90;2.17;;;23.70;99.90;;;;;;5034934;28;20053;-71
2023/08/21 10:02:53;;;;;;;6.97;2.30;;;23.80;99.90;;;;;;5034433;28;20124;-73
2023/08/21 10:05:19;;;;;;;4.75;1.80;;;23.70;99.90;;;;;;5034847;28;20061;-71
2023/08/21 10:07:50;;;;;;;8.30;2.15;;;23.90;99.90;;;;;;5033112;28;20052;-71
2023/08/21 10:10:16;;;;;;;8.73;2.03;;;23.90;99.90;;;;;;5034772;28;20049;-71
2023/08/21 10:12:43;;;;;;;6.70;2.00;;;24.00;99.90;;;;;;5033134;28;20045;-77
2023/08/21 10:15:09;;;;;;;4.25;1.55;;;24.00;99.90;;;;;;5032986;28;20049;-71
2023/08/21 10:17:36;;;;;;;10.02;2.50;;;24.10;99.90;;;;;;5034572;28;20041;-71
2023/08/21 10:20:20;;;;;;;6.82;2.17;;;24.10;99.90;;;;;;5034260;28;20370;-71
2023/08/21 10:22:48;;;;;;;5.65;1.88;;;24.10;99.90;;;;;;5034198;28;20130;-73
2023/08/21 10:25:23;;;;;;;7.53;2.58;;;24.20;99.90;;;;;;5033747;28;20050;-72
2023/08/21 10:27:54;;;;;;;5.35;1.80;;;24.30;99.90;;;;;;5032741;28;20144;-72
2023/08/21 10:30:27;;;;;;;6.78;1.80;;;24.40;99.90;;;;;;5033643;28;20049;-72
2023/08/21 10:32:58;;;;;;;7.15;2.08;;;24.50;99.90;;;;;;5039015;28;20508;-72
2023/08/21 10:35:31;;;;;;;6.03;1.70;;;24.50;99.90;;;;;;5039059;28;20049;-72
2023/08/21 10:38:07;;;;;;;7.15;2.40;;;24.60;99.90;;;;;;5033059;28;20041;-71
2023/08/21 10:40:34;;;;;;;5.13;2.08;;;24.70;99.90;;;;;;5034138;28;20046;-72
2023/08/21 10:43:01;;;;;;;6.72;2.13;;;24.80;99.90;;;;;;5032919;28;20085;-72
2023/08/21 10:45:26;;;;;;;10.57;2.22;;;24.80;99.90;;;;;;5047425;28;20053;-73
2023/08/21 10:47:52;;;;;;;10.93;2.30;;;24.90;99.90;;;;;;5053821;28;20048;-71
2023/08/21 10:50:18;;;;;;;6.50;2.30;;;25.00;99.90;;;;;;5052418;28;20056;-72
2023/08/21 10:52:47;;;;;;;8.73;2.08;;;25.10;99.90;;;;;;5052274;28;20098;-72
2023/08/21 10:55:14;;;;;;;6.32;1.77;;;25.10;99.90;;;;;;5043985;28;20085;-72
2023/08/21 10:57:44;;;;;;;7.63;2.03;;;25.20;99.90;;;;;;5032375;28;20091;-79
2023/08/21 11:00:14;;;;;;;6.85;2.35;;;25.10;99.90;;;;;;5034451;28;20045;-72
2023/08/21 11:02:42;;;;;;;5.30;1.67;;;25.30;99.90;;;;;;5052485;28;20057;-71
2023/08/21 11:05:09;;;;;;;6.05;2.30;;;25.40;99.90;;;;;;5053641;28;20052;-73
2023/08/21 11:07:46;;;;;;;6.80;2.20;;;25.40;99.90;;;;;;5052024;28;20053;-73
2023/08/21 11:10:14;;;;;;;5.55;1.90;;;25.30;99.90;;;;;;5052344;28;20548;-73
2023/08/21 11:12:55;;;;;;;7.93;2.60;;;25.40;99.90;;;;;;5052325;28;20064;-72
2023/08/21 11:15:21;;;;;;;9.43;2.08;;;25.40;99.90;;;;;;5052257;28;20124;-72
2023/08/21 11:17:58;;;;;;;6.45;2.40;;;25.20;99.90;;;;;;5051933;28;20131;-73
2023/08/21 11:20:34;;;;;;;7.35;1.73;;;25.10;99.90;;;;;;5052211;28;20071;-72
2023/08/21 11:23:02;;;;;;;10.82;2.03;;;24.90;99.90;;;;;;5051819;28;20053;-71
2023/08/21 11:25:29;;;;;;;6.80;2.35;;;24.90;99.90;;;;;;5041158;28;20041;-72
2023/08/21 11:28:02;;;;;;;7.90;2.15;;;25.10;99.90;;;;;;5033090;28;20520;-72
2023/08/21 11:30:30;;;;;;;8.65;2.25;;;25.20;99.90;;;;;;5048692;28;20106;-72
2023/08/21 11:33:11;;;;;;;7.32;2.58;;;24.90;99.90;;;;;;5033165;28;20050;-72
2023/08/21 11:35:40;;;;;;;7.60;2.08;;;24.60;99.90;;;;;;5034835;28;20059;-72
2023/08/21 11:38:13;;;;;;;9.63;2.25;;;24.50;99.90;;;;;;5039994;28;20037;-73
2023/08/21 11:40:38;;;;;;;7.97;1.95;;;24.40;99.90;;;;;;5038458;28;20080;-72
2023/08/21 11:43:10;;;;;;;11.43;3.38;;;24.50;99.90;;;;;;5038515;28;20080;-72
2023/08/21 11:45:36;;;;;;;11.15;2.22;;;24.50;99.90;;;;;;5037947;28;20060;-72
2023/08/21 11:48:03;;;;;;;8.63;2.15;;;24.70;99.90;;;;;;5038633;28;20041;-73
2023/08/21 11:50:28;;;;;;;10.75;2.80;;;24.80;99.90;;;;;;5038410;28;20053;-72
2023/08/21 11:52:55;;;;;;;10.95;3.15;;;24.90;99.90;;;;;;5053051;28;20053;-73
2023/08/21 11:55:21;;;;;;;11.48;3.70;;;25.10;99.90;;;;;;5041628;28;20052;-72
2023/08/21 11:57:48;;;;;;;8.52;2.75;;;25.20;99.90;;;;;;5039823;28;20060;-73
2023/08/21 12:00:18;;;;;;;10.73;2.50;;;25.00;99.90;;;;;;5038496;28;20056;-72
2023/08/21 12:03:06;;;;;;;7.53;2.20;;;24.90;99.90;;;;;;5038473;28;20522;-72
2023/08/21 12:05:33;;;;;;;6.78;2.00;;;24.90;99.90;;;;;;5043171;28;20127;-73
2023/08/21 12:07:58;;;;;;;7.40;1.80;;;25.10;99.90;;;;;;5050176;28;20076;-73
2023/08/21 12:10:29;;;;;;;9.65;2.00;;;25.30;99.90;;;;;;5039916;28;20401;-73
2023/08/21 12:12:55;;;;;;;6.32;1.60;;;25.00;99.90;;;;;;5052793;28;20084;-73
2023/08/21 12:15:21;;;;;;;4.90;1.95;;;24.90;99.90;;;;;;5042662;28;20057;-72
2023/08/21 12:17:46;;;;;;;11.43;2.55;;;24.50;99.90;;;;;;5058131;28;20052;-73
2023/08/21 12:20:12;;;;;;;7.85;2.40;;;24.40;99.90;;;;;;5051909;28;20128;-73
2023/08/21 12:22:38;;;;;;;6.10;2.05;;;24.50;99.90;;;;;;5045391;28;20496;-73
2023/08/21 12:25:05;;;;;;;8.60;2.15;;;24.60;99.90;;;;;;5038121;28;20064;-72
2023/08/21 12:27:32;;;;;;;7.45;2.58;;;24.70;99.90;;;;;;5037889;28;20144;-73
2023/08/21 12:29:57;;;;;;;9.10;2.53;;;24.80;99.90;;;;;;5040280;28;20128;-73
2023/08/21 12:32:26;;;;;;;8.98;3.42;;;24.80;99.90;;;;;;5046664;28;20128;-73
2023/08/21 12:34:52;;;;;;;12.27;2.97;;;24.70;99.90;;;;;;5048032;28;20500;-73
2023/08/21 12:37:20;;;;;;;10.82;3.10;;;24.60;99.90;;;;;;5050305;28;20081;-73
2023/08/21 12:39:47;;;;;;;7.40;2.80;;;24.40;99.90;;;;;;5037996;28;20061;-73
2023/08/21 12:42:13;;;;;;;11.45;3.05;;;24.20;99.90;;;;;;5039518;28;20037;-73
2023/08/21 12:44:39;;;;;;;9.23;3.13;;;24.10;99.90;;;;;;5040366;28;20497;-72
2023/08/21 12:47:04;;;;;;;8.65;3.17;;;23.90;99.90;;;;;;5046951;28;20053;-73